createdAt,value
2018-02-04T00:00:43.814Z,3.83
2018-02-04T00:03:14.141Z,3.83
2018-02-04T00:05:46.163Z,3.83
2018-02-04T00:08:16.742Z,3.82
2018-02-04T00:10:47.647Z,3.82
2018-02-04T00:13:18.503Z,3.82
2018-02-04T00:15:49.439Z,3.82
2018-02-04T00:18:20.096Z,3.81
2018-02-04T00:20:50.618Z,3.82
2018-02-04T00:23:21.193Z,3.82
2018-02-04T00:25:51.991Z,3.82
2018-02-04T00:28:22.254Z,3.82
2018-02-04T00:30:53.158Z,3.80
2018-02-04T00:33:23.958Z,3.79
2018-02-04T00:35:55.411Z,3.79
2018-02-04T00:38:26.571Z,3.80
2018-02-04T00:40:57.923Z,3.79
2018-02-04T00:43:28.604Z,3.78
2018-02-04T00:45:58.427Z,3.75
2018-02-04T00:48:29.007Z,3.77
2018-02-04T00:51:00.302Z,3.77
2018-02-04T00:53:30.968Z,3.77
2018-02-04T00:56:02.322Z,3.76
2018-02-04T00:58:32.840Z,3.76
2018-02-04T02:38:02.699Z,3.59
2018-02-04T02:40:31.767Z,3.57
2018-02-04T02:43:00.827Z,3.58
2018-02-04T02:45:29.983Z,3.60
2018-02-04T02:47:58.935Z,3.60
2018-02-04T02:50:27.806Z,3.59
2018-02-04T02:52:56.570Z,3.55
2018-02-04T02:55:25.333Z,3.55
2018-02-04T02:57:54.087Z,3.51
2018-02-04T03:00:23.211Z,3.47
2018-02-04T03:02:52.311Z,3.48
2018-02-04T03:05:21.084Z,3.46
2018-02-04T03:07:49.923Z,3.45
2018-02-04T03:10:18.690Z,3.43
2018-02-04T03:12:47.663Z,3.44
2018-02-04T03:15:16.562Z,3.45
2018-02-04T03:17:45.327Z,3.39
2018-02-04T03:20:14.371Z,3.47
2018-02-04T03:22:43.191Z,3.49
2018-02-04T03:25:11.819Z,3.49
2018-02-04T03:27:40.591Z,3.48
2018-02-04T03:30:09.771Z,3.48
2018-02-04T03:32:38.563Z,3.47
2018-02-04T03:35:07.629Z,3.48
2018-02-04T03:37:36.552Z,3.44
2018-02-04T03:40:05.587Z,3.43
2018-02-04T03:42:34.587Z,3.42
2018-02-04T03:45:03.422Z,3.31
2018-02-04T03:47:32.488Z,3.27
2018-02-04T03:50:01.246Z,3.27
2018-02-04T03:52:30.533Z,3.26
2018-02-04T03:54:59.304Z,3.24
2018-02-04T03:57:28.097Z,3.10
2018-02-04T03:59:57.463Z,3.10
2018-02-04T04:02:26.438Z,2.97
2018-02-04T04:04:55.515Z,2.91
2018-02-04T04:07:24.631Z,2.89
2018-02-04T04:09:53.812Z,2.86
2018-02-04T04:12:22.955Z,2.87
2018-02-04T04:14:52.096Z,2.84
2018-02-04T04:17:21.167Z,2.81
2018-02-04T04:19:50.233Z,2.79
2018-02-04T04:22:19.338Z,2.79
2018-02-04T04:24:49.729Z,2.80
2018-02-04T04:27:19.591Z,2.74
2018-02-04T04:29:50.526Z,2.73
2018-02-04T04:32:21.602Z,2.73
2018-02-04T04:34:51.810Z,2.63
2018-02-04T04:37:22.011Z,2.63
2018-02-04T04:39:52.940Z,2.66
2018-02-04T04:42:24.374Z,2.70
2018-02-04T04:44:54.939Z,2.77
2018-02-04T04:47:26.303Z,2.83
2018-02-04T04:49:56.882Z,2.75
2018-02-04T04:52:28.286Z,2.79
2018-02-04T04:54:59.625Z,2.74
2018-02-04T04:57:30.474Z,2.72
2018-02-04T05:00:01.216Z,2.77
2018-02-04T05:02:32.704Z,2.79
2018-02-04T05:05:04.028Z,2.82
2018-02-04T05:07:34.649Z,2.77
2018-02-04T05:10:05.452Z,2.69
2018-02-04T05:12:36.705Z,2.66
2018-02-04T05:15:07.455Z,2.72
2018-02-04T05:17:38.716Z,2.74
2018-02-04T05:20:09.502Z,2.74
2018-02-04T05:22:40.366Z,2.77
2018-02-04T05:25:11.711Z,2.77
2018-02-04T05:27:42.975Z,2.71
2018-02-04T05:30:13.629Z,2.67
2018-02-04T05:32:43.862Z,2.69
2018-02-04T05:35:14.618Z,2.58
2018-02-04T05:37:45.244Z,2.64
2018-02-04T05:40:15.935Z,2.63
2018-02-04T05:42:47.311Z,2.66
2018-02-04T05:45:18.179Z,2.66
2018-02-04T05:47:48.359Z,2.69
2018-02-04T05:50:19.914Z,2.73
2018-02-04T05:52:51.599Z,2.74
2018-02-04T05:55:23.182Z,2.74
2018-02-04T05:57:53.601Z,2.74
2018-02-04T06:00:24.871Z,2.70
2018-02-04T06:02:55.412Z,2.65
2018-02-04T06:05:25.939Z,2.71
2018-02-04T06:07:56.871Z,2.68
2018-02-04T06:10:27.391Z,2.68
2018-02-04T06:12:57.173Z,2.70
2018-02-04T06:15:29.476Z,2.71
2018-02-04T06:17:59.289Z,2.70
2018-02-04T06:20:28.936Z,2.65
2018-02-04T06:22:59.413Z,2.70
2018-02-04T06:25:30.236Z,2.70
2018-02-04T06:28:00.584Z,2.67
2018-02-04T06:30:31.379Z,2.69
2018-02-04T06:33:03.271Z,2.73
2018-02-04T06:35:32.943Z,2.73
2018-02-04T06:38:03.721Z,2.77
2018-02-04T06:40:34.548Z,2.80
2018-02-04T06:43:05.517Z,2.84
2018-02-04T06:45:36.794Z,2.86
2018-02-04T06:48:07.655Z,2.80
2018-02-04T06:50:38.458Z,2.77
2018-02-04T06:53:08.927Z,2.82
2018-02-04T06:55:39.689Z,2.88
2018-02-04T06:58:10.912Z,2.86
2018-02-04T07:00:42.412Z,2.81
2018-02-04T07:03:12.968Z,2.83
2018-02-04T07:05:43.758Z,2.82
2018-02-04T07:08:14.686Z,2.78
2018-02-04T07:10:44.475Z,2.75
2018-02-04T07:13:15.038Z,2.69
2018-02-04T07:15:46.708Z,2.88
2018-02-04T07:18:17.586Z,2.92
2018-02-04T07:20:48.951Z,2.90
2018-02-04T07:23:19.844Z,2.91
2018-02-04T07:25:50.639Z,2.85
2018-02-04T07:28:21.240Z,2.89
2018-02-04T07:30:52.655Z,2.88
2018-02-04T07:33:23.519Z,2.91
2018-02-04T07:35:54.351Z,2.87
2018-02-04T07:38:25.732Z,2.82
2018-02-04T07:40:56.284Z,2.83
2018-02-04T07:43:27.166Z,2.83
2018-02-04T07:45:57.349Z,2.85
2018-02-04T07:48:28.776Z,2.86
2018-02-04T07:50:59.596Z,2.84
2018-02-04T07:53:30.455Z,2.77
2018-02-04T07:56:01.679Z,2.75
2018-02-04T07:58:32.771Z,2.76
2018-02-04T08:01:03.803Z,2.66
2018-02-04T08:03:34.679Z,2.68
2018-02-04T08:06:05.127Z,2.65
2018-02-04T08:08:35.774Z,2.69
2018-02-04T08:11:06.581Z,2.67
2018-02-04T08:13:37.523Z,2.66
2018-02-04T08:16:08.350Z,2.70
2018-02-04T08:18:39.775Z,2.71
2018-02-04T08:21:10.552Z,2.64
2018-02-04T08:23:41.035Z,2.59
2018-02-04T08:26:11.625Z,2.55
2018-02-04T08:28:42.477Z,2.45
2018-02-04T08:31:12.740Z,2.48
2018-02-04T08:33:43.639Z,2.53
2018-02-04T08:36:14.071Z,2.54
2018-02-04T08:38:44.775Z,2.41
2018-02-04T08:41:15.597Z,2.35
2018-02-04T08:43:46.596Z,2.32
2018-02-04T08:46:17.058Z,2.45
2018-02-04T08:48:47.755Z,2.53
2018-02-04T08:51:18.269Z,2.58
2018-02-04T08:53:48.629Z,2.47
2018-02-04T08:56:19.477Z,2.47
2018-02-04T08:58:50.436Z,2.58
2018-02-04T09:01:22.035Z,2.63
2018-02-04T09:03:52.754Z,2.68
2018-02-04T09:06:24.676Z,2.66
2018-02-04T09:08:55.200Z,2.67
2018-02-04T09:11:25.548Z,2.73
2018-02-04T09:13:56.100Z,2.69
2018-02-04T09:16:26.687Z,2.68
2018-02-04T09:18:57.508Z,2.65
2018-02-04T09:21:28.345Z,2.65
2018-02-04T09:23:59.887Z,2.71
2018-02-04T09:26:30.744Z,2.70
2018-02-04T09:29:01.963Z,2.72
2018-02-04T09:31:32.644Z,4.47
2018-02-04T09:34:03.487Z,5.57
2018-02-04T09:36:34.332Z,5.72
2018-02-04T09:39:05.291Z,6.38
2018-02-04T09:41:36.709Z,6.81
2018-02-04T09:44:06.553Z,5.91
2018-02-04T09:46:37.126Z,4.90
2018-02-04T09:49:08.152Z,4.08
2018-02-04T09:51:38.996Z,3.54
2018-02-04T09:54:10.266Z,3.33
2018-02-04T09:56:40.665Z,3.17
2018-02-04T09:59:11.172Z,3.14
2018-02-04T10:01:41.924Z,2.96
2018-02-04T10:04:13.387Z,2.80
2018-02-04T10:06:43.872Z,2.85
2018-02-04T10:09:14.436Z,2.83
2018-02-04T10:11:45.818Z,2.78
2018-02-04T10:14:16.460Z,2.79
2018-02-04T10:16:46.991Z,2.87
2018-02-04T10:19:17.914Z,2.94
2018-02-04T10:21:49.260Z,2.99
2018-02-04T10:24:20.571Z,2.87
2018-02-04T10:26:51.070Z,2.80
2018-02-04T10:29:22.187Z,2.83
2018-02-04T10:31:52.811Z,2.84
2018-02-04T10:34:24.262Z,2.80
2018-02-04T10:36:54.891Z,2.73
2018-02-04T10:39:26.508Z,2.61
2018-02-04T10:41:57.068Z,2.67
2018-02-04T10:44:28.524Z,2.72
2018-02-04T10:46:59.089Z,2.85
2018-02-04T10:49:29.531Z,2.91
2018-02-04T10:52:01.374Z,2.97
2018-02-04T10:54:32.975Z,2.98
2018-02-04T10:57:03.658Z,3.03
2018-02-04T10:59:34.519Z,3.10
2018-02-04T11:02:05.754Z,3.15
2018-02-04T11:04:36.454Z,3.23
2018-02-04T11:07:06.834Z,3.33
2018-02-04T11:09:38.635Z,3.39
2018-02-04T11:12:10.075Z,3.47
2018-02-04T11:14:39.508Z,3.46
2018-02-04T11:17:10.120Z,3.32
2018-02-04T11:19:40.352Z,3.15
2018-02-04T11:22:10.199Z,3.32
2018-02-04T11:24:41.759Z,3.27
2018-02-04T11:27:17.153Z,3.45
2018-02-04T11:29:46.251Z,3.34
2018-02-04T11:32:21.274Z,3.47
2018-02-04T11:34:50.387Z,3.49
2018-02-04T11:37:19.452Z,3.46
2018-02-04T11:39:48.546Z,3.42
2018-02-04T11:42:18.927Z,3.39
2018-02-04T11:44:49.766Z,3.41
2018-02-04T11:47:20.270Z,3.39
2018-02-04T11:49:50.797Z,3.41
2018-02-04T11:52:21.843Z,3.41
2018-02-04T11:54:52.515Z,3.49
2018-02-04T11:57:23.198Z,3.52
2018-02-04T11:59:54.548Z,3.49
2018-02-04T12:02:25.827Z,3.46
2018-02-04T12:04:56.654Z,3.50
2018-02-04T12:07:27.527Z,3.50
2018-02-04T12:09:58.391Z,3.47
2018-02-04T12:12:29.197Z,3.43
2018-02-04T12:15:00.707Z,3.24
2018-02-04T12:17:31.631Z,3.07
2018-02-04T12:20:02.476Z,3.13
2018-02-04T12:22:33.894Z,3.28
2018-02-04T12:25:04.384Z,3.40
2018-02-04T12:27:34.691Z,3.44
2018-02-04T12:30:05.821Z,3.44
2018-02-04T12:32:36.346Z,3.39
2018-02-04T12:35:06.887Z,3.47
2018-02-04T12:37:37.770Z,3.49
2018-02-04T12:40:08.263Z,3.38
2018-02-04T12:42:43.159Z,3.33
2018-02-04T12:45:12.250Z,3.38
2018-02-04T12:47:41.348Z,3.37
2018-02-04T12:50:11.316Z,3.40
2018-02-04T12:52:41.115Z,3.36
2018-02-04T12:55:12.585Z,3.34
2018-02-04T12:57:43.132Z,3.49
2018-02-04T13:00:13.355Z,3.43
2018-02-04T13:02:43.753Z,3.35
2018-02-04T13:05:14.323Z,3.41
2018-02-04T13:07:45.891Z,3.39
2018-02-04T13:10:16.429Z,3.40
2018-02-04T13:12:49.304Z,3.39
2018-02-04T13:15:18.447Z,3.35
2018-02-04T13:17:48.762Z,3.15
2018-02-04T13:20:19.341Z,3.17
2018-02-04T13:22:49.760Z,3.21
2018-02-04T13:25:20.344Z,3.24
2018-02-04T13:27:50.752Z,3.35
2018-02-04T13:30:21.331Z,3.24
2018-02-04T13:32:51.687Z,3.15
2018-02-04T13:35:21.721Z,3.12
2018-02-04T13:37:52.545Z,3.16
2018-02-04T13:40:23.471Z,3.04
2018-02-04T13:42:54.797Z,3.11
2018-02-04T13:45:25.391Z,3.18
2018-02-04T13:47:55.703Z,3.22
2018-02-04T13:50:26.613Z,3.22
2018-02-04T13:52:56.979Z,3.15
2018-02-04T13:55:27.360Z,3.23
2018-02-04T13:57:58.152Z,3.15
2018-02-04T14:00:29.063Z,3.16
2018-02-04T14:03:00.304Z,3.17
2018-02-04T14:05:31.010Z,3.21
2018-02-04T14:08:02.292Z,3.16
2018-02-04T14:10:33.116Z,3.00
2018-02-04T14:13:04.452Z,3.06
2018-02-04T14:15:35.070Z,3.09
2018-02-04T14:18:05.965Z,2.95
2018-02-04T14:20:37.764Z,2.96
2018-02-04T14:23:09.200Z,2.86
2018-02-04T14:25:40.779Z,2.92
2018-02-04T14:28:11.599Z,3.00
2018-02-04T14:30:42.475Z,3.06
2018-02-04T14:33:13.319Z,3.07
2018-02-04T14:35:44.788Z,2.96
2018-02-04T14:38:15.621Z,3.01
2018-02-04T14:40:47.251Z,3.03
2018-02-04T14:43:19.007Z,3.06
2018-02-04T14:45:49.354Z,3.09
2018-02-04T14:48:19.879Z,2.96
2018-02-04T14:50:50.751Z,2.89
2018-02-04T14:53:22.590Z,2.72
2018-02-04T14:55:53.947Z,3.35
2018-02-04T14:58:24.329Z,4.61
2018-02-04T15:00:54.666Z,5.45
2018-02-04T15:03:25.188Z,5.28
2018-02-04T15:05:56.983Z,4.35
2018-02-04T15:08:27.271Z,4.23
2018-02-04T15:10:57.764Z,3.99
2018-02-04T15:13:28.902Z,3.53
2018-02-04T15:15:59.910Z,3.48
2018-02-04T15:18:30.771Z,3.36
2018-02-04T15:21:01.081Z,3.28
2018-02-04T15:23:31.460Z,3.26
2018-02-04T15:26:01.541Z,2.98
2018-02-04T15:28:32.120Z,2.94
2018-02-04T15:31:03.051Z,2.90
2018-02-04T15:33:33.945Z,2.77
2018-02-04T15:36:05.100Z,2.79
2018-02-04T15:38:36.025Z,2.82
2018-02-04T15:41:08.317Z,2.87
2018-02-04T15:43:39.736Z,2.85
2018-02-04T15:46:10.635Z,2.92
2018-02-04T15:48:41.113Z,2.92
2018-02-04T15:51:11.830Z,2.94
2018-02-04T15:53:42.683Z,2.95
2018-02-04T15:56:13.765Z,2.93
2018-02-04T15:58:44.618Z,2.80
2018-02-04T16:01:15.223Z,2.87
2018-02-04T16:03:45.833Z,2.92
2018-02-04T16:06:16.461Z,2.96
2018-02-04T16:08:46.768Z,2.99
2018-02-04T16:11:17.680Z,3.01
2018-02-04T16:13:48.548Z,2.95
2018-02-04T16:16:19.470Z,2.90
2018-02-04T16:18:50.357Z,2.90
2018-02-04T16:21:21.756Z,2.98
2018-02-04T16:23:52.366Z,3.04
2018-02-04T16:26:23.771Z,2.86
2018-02-04T16:28:54.639Z,2.86
2018-02-04T16:31:25.498Z,3.16
2018-02-04T16:33:56.360Z,3.35
2018-02-04T16:36:27.723Z,3.14
2018-02-04T16:38:58.561Z,3.18
2018-02-04T16:41:29.407Z,3.19
2018-02-04T16:43:59.668Z,3.12
2018-02-04T16:46:30.494Z,3.17
2018-02-04T16:49:01.343Z,3.25
2018-02-04T16:51:32.711Z,3.24
2018-02-04T16:54:03.388Z,3.23
2018-02-04T16:56:34.567Z,3.27
2018-02-04T16:59:04.839Z,3.32
2018-02-04T17:01:35.710Z,3.28
2018-02-04T17:04:06.553Z,3.19
2018-02-04T17:06:37.608Z,3.14
2018-02-04T17:09:08.759Z,3.06
2018-02-04T17:11:39.716Z,3.10
2018-02-04T17:14:10.539Z,3.08
2018-02-04T17:16:41.481Z,3.14
2018-02-04T17:19:12.367Z,3.17
2018-02-04T17:21:43.903Z,3.23
2018-02-04T17:24:14.651Z,3.24
2018-02-04T17:26:45.640Z,3.21
2018-02-04T17:29:15.507Z,3.20
2018-02-04T17:31:46.158Z,3.17
2018-02-04T17:34:17.667Z,3.27
2018-02-04T17:36:48.608Z,3.45
2018-02-04T17:39:19.328Z,3.41
2018-02-04T17:41:50.612Z,3.31
2018-02-04T17:44:21.323Z,3.28
2018-02-04T17:46:52.806Z,3.28
2018-02-04T17:49:23.310Z,3.24
2018-02-04T17:51:53.934Z,3.14
2018-02-04T17:54:24.876Z,3.18
2018-02-04T17:56:55.639Z,3.19
2018-02-04T17:59:26.778Z,3.09
2018-02-04T18:01:57.384Z,3.26
2018-02-04T18:04:27.770Z,3.19
2018-02-04T18:06:58.351Z,3.25
2018-02-04T18:09:28.048Z,3.18
2018-02-04T18:11:58.584Z,3.21
2018-02-04T18:14:29.405Z,3.22
2018-02-04T18:17:00.848Z,3.25
2018-02-04T18:19:31.723Z,3.28
2018-02-04T18:22:02.689Z,3.28
2018-02-04T18:24:33.560Z,3.28
2018-02-04T18:27:04.536Z,3.31
2018-02-04T18:29:35.414Z,3.33
2018-02-04T18:32:06.812Z,3.40
2018-02-04T18:34:37.326Z,3.42
2018-02-04T18:37:07.799Z,3.40
2018-02-04T18:39:38.653Z,3.33
2018-02-04T18:42:09.685Z,3.36
2018-02-04T18:44:40.530Z,3.17
2018-02-04T18:47:11.445Z,3.17
2018-02-04T18:49:41.987Z,3.22
2018-02-04T18:52:12.830Z,3.16
2018-02-04T18:54:43.696Z,3.25
2018-02-04T18:57:14.730Z,3.67
2018-02-04T18:59:45.623Z,3.66
2018-02-04T19:02:16.206Z,3.61
2018-02-04T19:04:46.792Z,3.54
2018-02-04T19:07:17.860Z,3.35
2018-02-04T19:09:48.756Z,3.47
2018-02-04T19:12:19.692Z,3.39
2018-02-04T19:14:50.600Z,3.40
2018-02-04T19:17:21.524Z,3.40
2018-02-04T19:19:52.556Z,3.41
2018-02-04T19:22:23.501Z,3.41
2018-02-04T19:24:54.397Z,3.41
2018-02-04T19:27:25.791Z,3.40
2018-02-04T19:29:56.708Z,3.42
2018-02-04T19:32:27.638Z,3.43
2018-02-04T19:34:58.499Z,3.45
2018-02-04T19:37:29.489Z,3.43
2018-02-04T19:40:00.403Z,3.45
2018-02-04T19:42:32.047Z,3.39
2018-02-04T19:45:02.906Z,3.40
2018-02-04T19:47:33.923Z,3.41
2018-02-04T19:50:04.773Z,3.43
2018-02-04T19:52:37.849Z,3.44
2018-02-04T19:55:07.217Z,3.45
2018-02-04T19:57:36.428Z,3.45
2018-02-04T20:00:06.555Z,3.45
2018-02-04T20:02:38.145Z,3.44
2018-02-04T20:05:08.364Z,3.54
2018-02-04T20:07:38.991Z,3.56
2018-02-04T20:10:09.791Z,3.54
2018-02-04T20:12:40.897Z,3.52
2018-02-04T20:15:11.879Z,3.49
2018-02-04T20:17:42.917Z,3.48
2018-02-04T20:20:13.844Z,3.47
2018-02-04T20:22:44.789Z,3.46
2018-02-04T20:25:15.683Z,3.46
2018-02-04T20:27:46.657Z,3.46
2018-02-04T20:30:17.510Z,3.45
2018-02-04T20:32:59.508Z,3.44
2018-02-04T20:35:28.754Z,3.42
2018-02-04T20:37:57.935Z,3.41
2018-02-04T20:40:27.226Z,3.39
2018-02-04T20:42:56.332Z,3.39
2018-02-04T20:45:25.627Z,3.37
2018-02-04T20:47:54.865Z,3.36
2018-02-04T20:50:24.392Z,3.36
2018-02-04T20:52:54.771Z,3.36
2018-02-04T20:55:25.623Z,3.35
2018-02-04T20:57:56.509Z,3.32
2018-02-04T21:00:27.428Z,3.51
2018-02-04T21:02:57.850Z,3.60
2018-02-04T21:05:28.660Z,3.53
2018-02-04T21:07:58.935Z,3.50
2018-02-04T21:10:29.114Z,3.46
2018-02-04T21:12:59.951Z,3.40
2018-02-04T21:15:30.985Z,3.37
2018-02-04T21:18:02.292Z,3.37
2018-02-04T21:20:32.983Z,3.35
2018-02-04T21:23:04.275Z,3.34
2018-02-04T21:25:35.708Z,3.32
2018-02-04T21:28:06.626Z,3.32
2018-02-04T21:30:37.452Z,3.31
2018-02-04T21:33:08.730Z,3.31
2018-02-04T21:35:39.607Z,3.28
2018-02-04T21:38:10.535Z,3.28
2018-02-04T21:40:41.431Z,3.27
2018-02-04T21:43:12.454Z,3.27
2018-02-04T21:45:43.783Z,3.24
2018-02-04T21:48:14.683Z,3.22
2018-02-04T21:50:45.175Z,3.24
2018-02-04T21:53:15.824Z,3.62
2018-02-04T21:55:46.655Z,3.57
2018-02-04T21:58:17.537Z,3.50
2018-02-04T22:00:48.412Z,3.35
2018-02-04T22:03:19.740Z,4.19
2018-02-04T22:05:50.647Z,4.51
2018-02-04T22:08:21.588Z,4.32
2018-02-04T22:10:52.454Z,4.09
2018-02-04T22:13:23.439Z,3.91
2018-02-04T22:15:53.745Z,3.75
2018-02-04T22:18:24.646Z,3.66
2018-02-04T22:20:55.476Z,3.55
2018-02-04T22:23:27.208Z,3.50
2018-02-04T22:25:57.171Z,3.45
2018-02-04T22:28:28.763Z,3.38
2018-02-04T22:30:59.590Z,3.34
2018-02-04T22:33:30.148Z,3.30
2018-02-04T22:36:00.739Z,3.26
2018-02-04T22:38:31.672Z,3.20
2018-02-04T22:41:01.975Z,3.18
2018-02-04T22:43:31.736Z,3.17
2018-02-04T22:46:03.284Z,3.17
2018-02-04T22:48:34.253Z,3.14
2018-02-04T22:51:05.013Z,3.02
2018-02-04T22:53:36.426Z,3.04
2018-02-04T22:56:06.960Z,3.02
2018-02-04T22:58:38.444Z,2.99
2018-02-04T23:01:08.376Z,2.99
2018-02-04T23:03:40.022Z,2.96
2018-02-04T23:06:11.323Z,2.88
2018-02-04T23:08:42.181Z,2.87
2018-02-04T23:11:12.911Z,2.88
2018-02-04T23:13:44.267Z,2.82
2018-02-04T23:16:14.996Z,2.84
2018-02-04T23:18:46.298Z,2.86
2018-02-04T23:21:16.785Z,2.86
2018-02-04T23:23:48.454Z,2.77
2018-02-04T23:26:23.255Z,2.71
2018-02-04T23:28:52.735Z,2.70
2018-02-04T23:31:22.191Z,2.73
2018-02-04T23:33:52.930Z,2.73
2018-02-04T23:36:26.158Z,2.76
2018-02-04T23:38:55.508Z,2.77
2018-02-04T23:41:25.035Z,2.75
2018-02-04T23:43:56.435Z,2.74
2018-02-04T23:46:26.739Z,2.76
2018-02-04T23:48:57.281Z,2.78
2018-02-04T23:51:27.667Z,2.80
2018-02-04T23:53:58.587Z,2.79
2018-02-04T23:56:29.072Z,2.77
2018-02-04T23:58:59.860Z,2.77
